Time;durP1;ratioP1;P1;durP2;ratioP2;P2;SDS_P1;SDS_P2;PMS_P1;PMS_P2;Temp;Humidity;BMP_temperature;BMP_pressure;BME280_temperature;BME280_humidity;BME280_pressure;Samples;Min_cycle;Max_cycle;Signal;HPM_P1;HPM_P2
2021/06/27 00:01:24;;;;;;;10.85;6.12;;;21.60;87.80;;;;;;1893328;76;21033;-47
2021/06/27 00:03:54;;;;;;;10.88;5.85;;;21.60;87.70;;;;;;1851742;77;21031;-47
2021/06/27 00:06:24;;;;;;;10.40;5.67;;;21.60;87.60;;;;;;1817894;78;21106;-46
2021/06/27 00:08:53;;;;;;;9.23;5.60;;;21.60;87.90;;;;;;1851750;77;21073;-48
2021/06/27 00:11:28;;;;;;;9.73;5.50;;;21.60;88.00;;;;;;1851818;77;21034;-47
2021/06/27 00:13:54;;;;;;;9.80;5.47;;;21.60;88.00;;;;;;1850763;77;21480;-46
2021/06/27 00:16:23;;;;;;;7.28;5.22;;;21.70;88.10;;;;;;1851846;77;21053;-46
2021/06/27 00:18:53;;;;;;;8.18;5.28;;;21.70;87.90;;;;;;1851704;77;21026;-46
2021/06/27 00:21:23;;;;;;;9.28;5.95;;;21.80;87.70;;;;;;1817896;78;21077;-47
2021/06/27 00:23:52;;;;;;;10.55;5.55;;;21.80;87.60;;;;;;1851806;77;21046;-48
2021/06/27 00:26:24;;;;;;;7.50;5.47;;;21.80;88.10;;;;;;1818090;78;21084;-46
2021/06/27 00:28:54;;;;;;;5.92;4.58;;;21.80;87.60;;;;;;1851752;76;21065;-49
2021/06/27 00:31:24;;;;;;;6.67;5.85;;;21.80;87.70;;;;;;1851730;77;21040;-47
2021/06/27 00:33:53;;;;;;;9.58;5.62;;;21.80;87.60;;;;;;1851682;77;21014;-49
2021/06/27 00:36:23;;;;;;;13.90;6.40;;;21.90;87.20;;;;;;1851938;77;21120;-51
2021/06/27 00:38:52;;;;;;;12.43;5.85;;;21.80;86.90;;;;;;1817940;78;21084;-46
2021/06/27 00:41:21;;;;;;;9.13;6.00;;;21.70;86.90;;;;;;1851805;77;21073;-47
2021/06/27 00:43:54;;;;;;;13.13;5.95;;;21.60;87.10;;;;;;1851909;77;21159;-47
2021/06/27 00:46:24;;;;;;;9.53;6.10;;;21.60;87.30;;;;;;1818079;79;21053;-47
2021/06/27 00:48:53;;;;;;;7.83;5.65;;;21.40;87.50;;;;;;1851823;77;21034;-46
2021/06/27 00:51:23;;;;;;;8.78;5.95;;;21.40;87.90;;;;;;1851822;77;21042;-50
2021/06/27 00:53:52;;;;;;;10.40;5.85;;;21.40;87.90;;;;;;1851691;76;21038;-47
2021/06/27 00:56:22;;;;;;;10.95;5.65;;;21.40;88.20;;;;;;1817979;78;21092;-48
2021/06/27 00:58:51;;;;;;;7.37;5.62;;;21.40;88.30;;;;;;1851684;76;21591;-46
2021/06/27 01:01:21;;;;;;;9.73;5.55;;;21.50;87.90;;;;;;1851679;77;21152;-47
2021/06/27 01:03:50;;;;;;;8.30;5.42;;;21.40;87.60;;;;;;1851800;76;21046;-46
2021/06/27 01:06:19;;;;;;;7.25;5.65;;;21.40;87.70;;;;;;1851946;77;21108;-47
2021/06/27 01:08:49;;;;;;;10.60;5.97;;;21.30;88.00;;;;;;1851797;77;21118;-48
2021/06/27 01:11:18;;;;;;;14.33;5.80;;;21.30;88.00;;;;;;1817810;78;21115;-49
2021/06/27 01:13:48;;;;;;;7.72;5.15;;;21.30;88.10;;;;;;1851768;77;21034;-47
2021/06/27 01:16:18;;;;;;;11.05;5.35;;;21.30;88.40;;;;;;1851811;77;21096;-47
2021/06/27 01:18:50;;;;;;;9.85;5.70;;;21.30;88.50;;;;;;1817928;78;21111;-48
2021/06/27 01:21:19;;;;;;;7.53;5.62;;;21.40;88.60;;;;;;1851833;77;21026;-47
2021/06/27 01:23:49;;;;;;;10.93;5.22;;;21.40;88.40;;;;;;1851806;77;21006;-49
2021/06/27 01:26:18;;;;;;;13.88;6.45;;;21.50;88.40;;;;;;1817966;79;21045;-46
2021/06/27 01:28:48;;;;;;;10.23;5.12;;;21.60;88.40;;;;;;1852040;77;21022;-47
2021/06/27 01:31:17;;;;;;;6.05;5.08;;;21.60;88.30;;;;;;1818118;79;21210;-47
2021/06/27 01:33:50;;;;;;;8.43;5.12;;;21.70;88.30;;;;;;1851905;76;21042;-47
2021/06/27 01:36:19;;;;;;;6.97;5.00;;;21.70;88.10;;;;;;1851796;77;21104;-47
2021/06/27 01:38:49;;;;;;;8.95;5.08;;;21.70;87.90;;;;;;1817909;78;21053;-48
2021/06/27 01:41:18;;;;;;;7.62;6.00;;;21.70;87.90;;;;;;1851858;77;21062;-48
2021/06/27 01:43:48;;;;;;;9.70;4.22;;;21.60;87.70;;;;;;1851968;77;21066;-47
2021/06/27 01:46:19;;;;;;;9.33;5.05;;;21.60;87.80;;;;;;1851822;77;21038;-49
2021/06/27 01:48:48;;;;;;;10.65;5.33;;;21.60;88.10;;;;;;1856951;76;21069;-47
2021/06/27 01:51:18;;;;;;;7.05;5.10;;;21.60;88.20;;;;;;1897155;76;21029;-48
2021/06/27 01:53:47;;;;;;;9.55;4.67;;;21.60;87.90;;;;;;1897245;74;21050;-48
2021/06/27 01:56:17;;;;;;;5.90;4.67;;;21.60;88.00;;;;;;1897397;76;21025;-47
2021/06/27 01:58:52;;;;;;;6.53;4.50;;;21.60;88.00;;;;;;1897149;75;21029;-48
2021/06/27 02:01:24;;;;;;;7.03;4.45;;;21.60;88.00;;;;;;1897128;76;21119;-47
2021/06/27 02:03:53;;;;;;;7.80;5.42;;;21.60;87.90;;;;;;1896554;76;21569;-48
2021/06/27 02:06:25;;;;;;;10.18;5.22;;;21.60;87.70;;;;;;1897285;76;21110;-50
2021/06/27 02:08:55;;;;;;;6.80;5.35;;;21.60;87.60;;;;;;1897182;75;21077;-47
2021/06/27 02:11:26;;;;;;;8.35;5.55;;;21.60;87.80;;;;;;1897443;76;21166;-50
2021/06/27 02:13:57;;;;;;;7.83;5.70;;;21.60;87.70;;;;;;1897099;76;21132;-48
2021/06/27 02:16:27;;;;;;;9.05;5.45;;;21.60;87.70;;;;;;1897203;76;21037;-47
2021/06/27 02:18:57;;;;;;;8.45;5.08;;;21.60;87.60;;;;;;1897255;75;21119;-47
2021/06/27 02:21:31;;;;;;;10.50;5.58;;;21.60;87.70;;;;;;1897125;76;21091;-47
2021/06/27 02:24:01;;;;;;;;;;;21.60;87.80;;;;;;1899929;74;21099;-47
2021/06/27 02:26:30;;;;;;;9.23;5.28;;;21.60;87.80;;;;;;1897280;76;20132;-47
2021/06/27 02:28:59;;;;;;;15.55;6.17;;;21.70;87.70;;;;;;1897225;76;21033;-48
2021/06/27 02:31:31;;;;;;;10.43;7.15;;;21.80;87.60;;;;;;1897127;76;21071;-47
2021/06/27 02:34:01;;;;;;;11.12;6.47;;;21.80;87.60;;;;;;1897110;76;21119;-47
2021/06/27 02:36:31;;;;;;;8.63;5.53;;;21.90;87.50;;;;;;1897177;76;21115;-47
2021/06/27 02:39:00;;;;;;;9.13;6.35;;;21.90;87.40;;;;;;1897159;76;21053;-47
2021/06/27 02:41:30;;;;;;;8.80;6.33;;;22.00;87.40;;;;;;1897261;76;21041;-48
2021/06/27 02:43:59;;;;;;;15.32;7.28;;;22.00;87.40;;;;;;1897157;75;21100;-47
2021/06/27 02:46:28;;;;;;;14.25;6.65;;;22.10;87.60;;;;;;1897162;75;21025;-48
2021/06/27 02:48:58;;;;;;;13.70;6.12;;;22.10;87.40;;;;;;1878808;75;21062;-48
2021/06/27 02:51:27;;;;;;;19.70;8.08;;;22.20;87.60;;;;;;1865943;77;21227;-47
2021/06/27 02:53:57;;;;;;;18.37;9.25;;;22.20;87.60;;;;;;1865781;77;21027;-49
2021/06/27 02:56:27;;;;;;;13.35;6.97;;;22.40;87.60;;;;;;1865823;77;21031;-47
2021/06/27 02:58:57;;;;;;;14.73;7.08;;;22.40;87.50;;;;;;1865789;77;21022;-48
2021/06/27 03:01:26;;;;;;;11.40;7.28;;;22.50;87.60;;;;;;1865807;76;21089;-49
2021/06/27 03:03:56;;;;;;;12.18;6.72;;;22.60;87.60;;;;;;1865761;77;21066;-47
2021/06/27 03:06:25;;;;;;;15.68;7.45;;;22.70;87.80;;;;;;1865876;76;21108;-49
2021/06/27 03:08:54;;;;;;;13.78;7.85;;;22.80;87.90;;;;;;1865916;77;21172;-46
2021/06/27 03:11:24;;;;;;;13.50;7.55;;;22.80;87.50;;;;;;1866032;77;21148;-49
2021/06/27 03:13:53;;;;;;;12.70;8.50;;;22.70;87.10;;;;;;1865799;77;21055;-47
2021/06/27 03:16:23;;;;;;;10.50;8.43;;;22.70;87.10;;;;;;1865797;77;21241;-47
2021/06/27 03:18:52;;;;;;;12.18;7.62;;;22.70;87.30;;;;;;1865814;77;21357;-49
2021/06/27 03:21:21;;;;;;;12.63;7.75;;;22.70;87.60;;;;;;1865796;77;21130;-50
2021/06/27 03:23:50;;;;;;;9.70;7.55;;;22.70;87.60;;;;;;1865804;76;21047;-47
2021/06/27 03:26:20;;;;;;;12.10;7.47;;;22.80;87.60;;;;;;1865778;77;21050;-50
2021/06/27 03:28:52;;;;;;;8.98;7.58;;;22.90;87.60;;;;;;1865891;76;21034;-48
2021/06/27 03:31:20;;;;;;;12.18;8.10;;;23.00;87.40;;;;;;1866041;77;21042;-47
2021/06/27 03:33:50;;;;;;;8.95;7.03;;;23.00;87.30;;;;;;1865761;77;21108;-46
2021/06/27 03:36:20;;;;;;;11.53;7.03;;;23.00;87.20;;;;;;1865854;77;21026;-49
2021/06/27 03:39:13;;;;;;;14.78;8.63;;;23.10;87.10;;;;;;1865829;77;21096;-47
2021/06/27 03:41:24;;;;;;;11.38;7.67;;;23.20;87.10;;;;;;1851415;77;21026;-49
2021/06/27 03:43:53;;;;;;;12.98;7.75;;;23.20;87.10;;;;;;1865794;77;21505;-47
2021/06/27 03:46:22;;;;;;;7.78;6.97;;;23.30;87.10;;;;;;1865818;77;21038;-47
2021/06/27 03:48:52;;;;;;;12.75;7.75;;;23.40;87.00;;;;;;1865908;75;21070;-49
2021/06/27 03:51:21;;;;;;;9.40;7.12;;;23.40;86.80;;;;;;1865922;77;21034;-47
2021/06/27 03:53:50;;;;;;;8.73;6.60;;;23.50;86.60;;;;;;1865798;76;21101;-46
2021/06/27 03:56:20;;;;;;;9.48;6.75;;;23.50;86.50;;;;;;1865909;77;21113;-47
2021/06/27 03:58:50;;;;;;;9.70;6.53;;;23.60;86.50;;;;;;1865890;77;21047;-47
2021/06/27 04:01:20;;;;;;;11.88;7.08;;;23.60;86.40;;;;;;1865804;77;21042;-47
2021/06/27 04:03:49;;;;;;;12.60;6.80;;;23.70;86.10;;;;;;1865808;76;21106;-48
2021/06/27 04:06:18;;;;;;;10.45;6.00;;;23.70;86.00;;;;;;1865800;77;21126;-49
2021/06/27 04:08:48;;;;;;;8.15;6.12;;;23.70;85.80;;;;;;1865821;76;21132;-49
2021/06/27 04:11:17;;;;;;;7.70;6.33;;;23.80;85.70;;;;;;1865921;77;21106;-48
2021/06/27 04:13:47;;;;;;;9.65;6.58;;;23.90;85.70;;;;;;1865747;77;21051;-48
2021/06/27 04:16:16;;;;;;;19.20;8.20;;;24.00;85.60;;;;;;1865900;76;21050;-48
2021/06/27 04:18:46;;;;;;;7.53;5.85;;;24.10;85.50;;;;;;1865782;76;21011;-50
2021/06/27 04:21:15;;;;;;;9.58;6.60;;;24.20;85.30;;;;;;1865731;77;21038;-48
2021/06/27 04:23:44;;;;;;;11.80;6.37;;;24.20;85.10;;;;;;1865857;77;21007;-47
2021/06/27 04:26:14;;;;;;;10.55;6.47;;;24.30;85.10;;;;;;1865854;77;21164;-47
2021/06/27 04:28:43;;;;;;;11.75;6.58;;;24.40;85.10;;;;;;1865883;76;21151;-48
2021/06/27 04:31:13;;;;;;;15.68;9.00;;;24.50;85.10;;;;;;1865850;77;21132;-47
2021/06/27 04:33:42;;;;;;;9.53;6.55;;;24.50;84.80;;;;;;1865735;77;21007;-47
2021/06/27 04:36:12;;;;;;;9.85;5.80;;;24.60;84.80;;;;;;1865777;77;21034;-47
2021/06/27 04:38:42;;;;;;;11.80;6.47;;;24.70;84.40;;;;;;1865777;77;21054;-46
2021/06/27 04:41:11;;;;;;;10.15;5.83;;;24.80;83.90;;;;;;1865736;77;21225;-48
2021/06/27 04:43:40;;;;;;;8.75;6.40;;;24.80;83.50;;;;;;1865746;77;21469;-47
2021/06/27 04:46:10;;;;;;;12.30;6.17;;;24.90;82.90;;;;;;1865926;76;21093;-48
2021/06/27 04:48:40;;;;;;;7.78;5.42;;;25.00;83.40;;;;;;1865865;77;21040;-47
2021/06/27 04:51:09;;;;;;;9.43;5.80;;;25.10;82.80;;;;;;1865897;77;21042;-48
2021/06/27 04:53:39;;;;;;;10.05;6.70;;;25.10;82.70;;;;;;1865890;77;21106;-48
2021/06/27 04:56:08;;;;;;;7.17;6.05;;;25.20;82.60;;;;;;1865886;77;21034;-49
2021/06/27 04:58:37;;;;;;;7.33;5.62;;;25.40;82.30;;;;;;1865850;76;21097;-47
2021/06/27 05:01:07;;;;;;;7.60;5.22;;;25.40;82.10;;;;;;1865842;76;21082;-48
2021/06/27 05:03:36;;;;;;;8.40;5.47;;;25.50;81.90;;;;;;1865889;77;21116;-48
2021/06/27 05:06:06;;;;;;;8.18;6.05;;;25.60;81.60;;;;;;1865882;77;21015;-48
2021/06/27 05:08:35;;;;;;;10.18;6.20;;;25.70;81.30;;;;;;1865837;77;21014;-48
2021/06/27 05:11:05;;;;;;;12.55;6.20;;;25.80;81.10;;;;;;1865923;77;21050;-48
2021/06/27 05:13:34;;;;;;;20.05;5.90;;;25.90;81.00;;;;;;1865928;76;21563;-49
2021/06/27 05:16:03;;;;;;;15.63;9.88;;;26.00;80.40;;;;;;1865853;76;21327;-48
2021/06/27 05:18:33;;;;;;;11.12;6.12;;;26.00;79.90;;;;;;1865924;76;21011;-50
2021/06/27 05:21:02;;;;;;;12.43;5.40;;;26.00;79.80;;;;;;1865790;77;21042;-49
2021/06/27 05:23:31;;;;;;;21.15;6.15;;;26.00;79.90;;;;;;1866030;76;21031;-49
2021/06/27 05:26:02;;;;;;;10.28;5.95;;;26.10;80.00;;;;;;1865794;76;21120;-47
2021/06/27 05:28:32;;;;;;;7.45;5.72;;;26.20;79.70;;;;;;1865764;77;21027;-47
2021/06/27 05:31:01;;;;;;;5.35;4.83;;;26.30;79.40;;;;;;1865798;77;21059;-48
2021/06/27 05:33:31;;;;;;;6.80;5.87;;;26.30;79.00;;;;;;1865703;77;21019;-49
2021/06/27 05:36:00;;;;;;;7.87;4.83;;;26.30;78.70;;;;;;1865718;77;21035;-48
2021/06/27 05:38:29;;;;;;;10.08;5.45;;;26.30;78.60;;;;;;1865667;77;21030;-49
2021/06/27 05:40:59;;;;;;;13.80;5.70;;;26.30;78.90;;;;;;1865707;76;21038;-49
2021/06/27 05:43:28;;;;;;;11.18;6.00;;;26.30;78.90;;;;;;1865780;77;21086;-47
2021/06/27 05:45:58;;;;;;;16.77;8.88;;;26.30;78.80;;;;;;1865749;76;21071;-47
2021/06/27 05:48:28;;;;;;;12.93;5.80;;;26.30;78.30;;;;;;1865738;77;21134;-47
2021/06/27 05:50:57;;;;;;;12.82;5.70;;;26.20;78.10;;;;;;1879938;75;21065;-49
2021/06/27 05:53:27;;;;;;;6.12;5.53;;;26.20;78.10;;;;;;1887105;76;21034;-47
2021/06/27 05:56:16;;;;;;;8.95;5.58;;;26.30;78.00;;;;;;1887057;76;21034;-50
2021/06/27 05:58:41;;;;;;;7.15;5.10;;;26.40;77.90;;;;;;1885216;75;21057;-47
2021/06/27 06:01:12;;;;;;;8.70;4.83;;;26.50;78.00;;;;;;1886715;76;21140;-47
2021/06/27 06:03:42;;;;;;;12.37;5.47;;;26.70;77.90;;;;;;1887098;75;21038;-47
2021/06/27 06:06:13;;;;;;;7.90;5.47;;;26.80;77.40;;;;;;1887208;76;21101;-46
2021/06/27 06:08:45;;;;;;;9.20;4.78;;;26.90;76.90;;;;;;1887159;76;21014;-48
2021/06/27 06:11:15;;;;;;;6.00;4.53;;;27.00;76.10;;;;;;1887212;76;21476;-47
2021/06/27 06:13:45;;;;;;;6.92;4.83;;;27.00;75.40;;;;;;1887135;76;21006;-50
2021/06/27 06:16:15;;;;;;;8.75;5.22;;;27.00;75.50;;;;;;1887246;76;21483;-47
2021/06/27 06:18:45;;;;;;;11.38;5.42;;;26.90;75.80;;;;;;1887286;75;21111;-48
2021/06/27 06:21:15;;;;;;;8.95;4.90;;;27.00;76.10;;;;;;1887445;76;21069;-51
2021/06/27 06:23:45;;;;;;;7.40;5.37;;;27.10;76.10;;;;;;1887129;76;21037;-48
2021/06/27 06:26:14;;;;;;;9.45;4.90;;;27.20;75.80;;;;;;1887159;76;21046;-48
2021/06/27 06:28:44;;;;;;;8.43;4.55;;;27.30;75.10;;;;;;1887168;75;21031;-48
2021/06/27 06:31:13;;;;;;;6.10;4.85;;;27.50;74.60;;;;;;1887231;75;21095;-51
2021/06/27 06:33:43;;;;;;;5.30;4.45;;;27.50;73.80;;;;;;1887190;75;21002;-50
2021/06/27 06:36:12;;;;;;;10.75;5.30;;;27.70;73.50;;;;;;1887222;76;21033;-47
2021/06/27 06:38:42;;;;;;;5.87;4.70;;;27.80;73.60;;;;;;1887139;75;21010;-47
2021/06/27 06:41:12;;;;;;;5.62;3.80;;;27.90;73.20;;;;;;1887196;76;21107;-47
2021/06/27 06:43:41;;;;;;;9.25;5.12;;;28.00;72.10;;;;;;1887282;76;21029;-50
2021/06/27 06:46:10;;;;;;;5.50;4.03;;;28.10;71.60;;;;;;1887156;75;21103;-46
2021/06/27 06:48:40;;;;;;;10.72;4.40;;;28.10;71.00;;;;;;1887099;76;21049;-48
2021/06/27 06:51:10;;;;;;;10.58;4.75;;;28.10;71.10;;;;;;1884821;76;21570;-49
2021/06/27 06:53:39;;;;;;;5.80;4.03;;;28.20;70.80;;;;;;1887103;76;21033;-46
2021/06/27 06:56:08;;;;;;;4.97;4.25;;;28.20;70.40;;;;;;1887280;75;21042;-49
2021/06/27 06:58:37;;;;;;;4.97;4.15;;;28.20;70.50;;;;;;1887255;76;21034;-48
2021/06/27 07:01:07;;;;;;;9.48;4.60;;;28.30;70.40;;;;;;1887174;76;21105;-49
2021/06/27 07:03:36;;;;;;;7.37;4.08;;;28.30;69.80;;;;;;1887186;75;21104;-47
2021/06/27 07:06:05;;;;;;;7.47;5.15;;;28.40;69.60;;;;;;1887248;76;21049;-51
2021/06/27 07:08:34;;;;;;;6.37;4.00;;;28.30;69.50;;;;;;1887216;76;21073;-48
2021/06/27 07:11:04;;;;;;;9.75;4.97;;;28.30;69.60;;;;;;1887292;76;21468;-47
2021/06/27 07:13:33;;;;;;;7.78;5.33;;;28.30;69.90;;;;;;1887277;76;21092;-48
2021/06/27 07:16:03;;;;;;;5.75;4.30;;;28.30;69.80;;;;;;1887099;75;21029;-48
2021/06/27 07:18:32;;;;;;;20.50;6.12;;;28.40;69.60;;;;;;1887368;76;21464;-49
2021/06/27 07:21:02;;;;;;;16.80;5.83;;;28.40;69.30;;;;;;1887175;76;21034;-48
2021/06/27 07:23:31;;;;;;;6.35;4.90;;;28.50;69.10;;;;;;1887239;76;21144;-48
2021/06/27 07:26:00;;;;;;;5.42;4.37;;;28.60;68.90;;;;;;1887153;76;21468;-46
2021/06/27 07:28:31;;;;;;;12.60;4.58;;;28.60;68.70;;;;;;1887213;75;21104;-48
2021/06/27 07:31:01;;;;;;;8.90;4.00;;;28.70;68.50;;;;;;1887278;76;21100;-47
2021/06/27 07:33:30;;;;;;;6.42;4.08;;;28.80;68.00;;;;;;1887102;75;21095;-50
2021/06/27 07:36:00;;;;;;;5.75;4.25;;;28.90;67.90;;;;;;1887148;76;21009;-49
2021/06/27 07:38:29;;;;;;;7.50;5.15;;;29.00;67.20;;;;;;1887098;76;21096;-48
2021/06/27 07:40:59;;;;;;;5.65;3.58;;;29.00;66.90;;;;;;1887151;76;21033;-48
2021/06/27 07:43:29;;;;;;;7.45;4.20;;;29.00;66.80;;;;;;1887132;76;21175;-47
2021/06/27 07:45:58;;;;;;;6.12;4.00;;;29.10;65.80;;;;;;1887193;76;21104;-48
2021/06/27 07:48:28;;;;;;;7.20;4.25;;;29.20;66.00;;;;;;1887227;76;21061;-51
2021/06/27 07:50:57;;;;;;;7.90;4.08;;;29.20;65.90;;;;;;1887370;75;21054;-49
2021/06/27 07:53:27;;;;;;;10.38;4.08;;;29.30;65.50;;;;;;1874867;76;21562;-47
2021/06/27 07:55:56;;;;;;;6.00;3.42;;;29.30;65.10;;;;;;1874914;76;21097;-51
2021/06/27 07:58:26;;;;;;;11.70;4.20;;;29.40;65.20;;;;;;1874858;75;21077;-46
2021/06/27 08:00:55;;;;;;;6.10;4.05;;;29.30;65.00;;;;;;1874887;76;21070;-47
2021/06/27 08:03:24;;;;;;;5.35;3.35;;;29.30;65.10;;;;;;1874968;76;21027;-51
2021/06/27 08:05:54;;;;;;;7.25;4.00;;;29.30;64.70;;;;;;1874914;76;21034;-47
2021/06/27 08:08:23;;;;;;;7.62;3.77;;;29.30;64.90;;;;;;1874889;76;21104;-47
2021/06/27 08:10:53;;;;;;;5.20;3.80;;;29.30;64.80;;;;;;1874975;75;21050;-49
2021/06/27 08:13:22;;;;;;;7.72;3.98;;;29.40;64.90;;;;;;1874787;76;21093;-48
2021/06/27 08:15:53;;;;;;;10.93;4.78;;;29.40;65.80;;;;;;1874836;76;21030;-49
2021/06/27 08:18:22;;;;;;;8.85;4.03;;;29.50;65.30;;;;;;1840083;77;21033;-49
2021/06/27 08:20:52;;;;;;;7.50;3.90;;;29.50;65.40;;;;;;1874901;76;21552;-50
2021/06/27 08:23:21;;;;;;;8.45;4.08;;;29.70;65.20;;;;;;1874900;76;21036;-48
2021/06/27 08:25:51;;;;;;;9.25;4.22;;;29.70;64.10;;;;;;1874946;76;21042;-47
2021/06/27 08:28:20;;;;;;;7.62;4.17;;;29.80;64.40;;;;;;1874787;76;21093;-51
2021/06/27 08:30:49;;;;;;;6.70;3.70;;;29.90;64.30;;;;;;1874872;75;21034;-48
2021/06/27 08:33:19;;;;;;;5.78;3.37;;;30.00;63.80;;;;;;1874883;75;21117;-47
2021/06/27 08:35:48;;;;;;;8.53;4.03;;;30.00;63.30;;;;;;1874959;75;21125;-48
2021/06/27 08:38:18;;;;;;;4.62;3.67;;;30.10;63.90;;;;;;1874839;76;21030;-47
2021/06/27 08:40:47;;;;;;;7.75;4.25;;;30.10;62.70;;;;;;1874813;76;21019;-47
2021/06/27 08:43:17;;;;;;;9.18;4.53;;;30.10;62.80;;;;;;1874817;75;21011;-47
2021/06/27 08:45:53;;;;;;;7.05;4.22;;;30.10;62.70;;;;;;1874842;76;21047;-48
2021/06/27 08:48:24;;;;;;;7.33;4.45;;;30.20;62.60;;;;;;1874960;76;21088;-49
2021/06/27 08:50:55;;;;;;;13.62;5.70;;;30.30;62.30;;;;;;1874967;76;21050;-49
2021/06/27 08:53:24;;;;;;;6.85;4.05;;;30.30;62.70;;;;;;1868129;76;21055;-47
2021/06/27 08:56:06;;;;;;;5.33;3.72;;;30.30;62.30;;;;;;1865788;77;21062;-47
2021/06/27 08:58:38;;;;;;;8.60;3.87;;;30.30;62.30;;;;;;1865756;76;21094;-47
2021/06/27 09:01:10;;;;;;;6.00;3.90;;;30.40;61.90;;;;;;1865066;77;21449;-49
2021/06/27 09:03:39;;;;;;;8.40;4.10;;;30.30;61.60;;;;;;1865645;76;21014;-47
2021/06/27 09:06:10;;;;;;;4.72;3.77;;;30.20;61.40;;;;;;1865802;76;21042;-48
2021/06/27 09:08:39;;;;;;;5.28;3.55;;;30.10;61.70;;;;;;1865838;76;21026;-49
2021/06/27 09:11:14;;;;;;;9.90;4.25;;;30.10;62.30;;;;;;1865753;77;21058;-48
2021/06/27 09:13:46;;;;;;;7.28;4.20;;;30.10;61.50;;;;;;1865813;76;21547;-51
2021/06/27 09:16:24;;;;;;;12.23;5.15;;;30.10;61.30;;;;;;1865597;77;21077;-50
2021/06/27 09:18:55;;;;;;;9.70;3.80;;;30.20;61.00;;;;;;1865731;76;21054;-51
2021/06/27 09:21:24;;;;;;;5.37;3.58;;;30.10;60.40;;;;;;1865314;77;21105;-49
2021/06/27 09:23:54;;;;;;;11.10;4.30;;;30.10;60.50;;;;;;1841587;77;21026;-47
2021/06/27 09:26:29;;;;;;;8.23;4.42;;;30.10;60.90;;;;;;1865698;77;21038;-48
2021/06/27 09:28:59;;;;;;;9.75;3.98;;;30.10;61.00;;;;;;1865706;77;21011;-49
2021/06/27 09:31:36;;;;;;;7.72;4.45;;;30.10;60.30;;;;;;1865637;76;21030;-48
2021/06/27 09:34:08;;;;;;;7.17;3.50;;;30.10;60.10;;;;;;1859956;77;21031;-48
2021/06/27 09:36:40;;;;;;;8.75;4.70;;;30.10;60.00;;;;;;1865759;77;21105;-47
2021/06/27 09:39:15;;;;;;;9.33;4.15;;;30.00;59.40;;;;;;1865557;77;21109;-48
2021/06/27 09:41:50;;;;;;;8.63;4.55;;;29.90;59.80;;;;;;1865807;76;21043;-49
2021/06/27 09:44:21;;;;;;;9.85;4.90;;;29.70;60.10;;;;;;1865838;76;21043;-51
2021/06/27 09:46:53;;;;;;;4.72;3.65;;;29.60;60.50;;;;;;1865858;76;21047;-51
2021/06/27 09:49:31;;;;;;;6.90;3.37;;;29.70;60.20;;;;;;1865773;77;21038;-48
2021/06/27 09:52:07;;;;;;;12.70;3.75;;;29.80;59.70;;;;;;1865695;76;21026;-49
2021/06/27 09:54:34;;;;;;;7.40;3.20;;;29.90;59.80;;;;;;1877456;76;21066;-52
2021/06/27 09:57:03;;;;;;;7.50;3.72;;;29.90;59.60;;;;;;1878000;76;21104;-48
2021/06/27 09:59:41;;;;;;;7.05;3.50;;;29.90;59.90;;;;;;1878031;76;21034;-51
2021/06/27 10:02:10;;;;;;;6.55;4.72;;;29.90;59.80;;;;;;1878083;76;21080;-49
2021/06/27 10:04:41;;;;;;;8.23;4.12;;;30.00;59.80;;;;;;1878085;76;21010;-51
2021/06/27 10:07:10;;;;;;;8.68;4.05;;;30.10;59.80;;;;;;1877966;75;21178;-50
2021/06/27 10:09:45;;;;;;;6.33;3.65;;;30.30;60.00;;;;;;1878091;76;21034;-47
2021/06/27 10:12:20;;;;;;;7.50;3.95;;;30.40;60.20;;;;;;1876587;76;21046;-49
2021/06/27 10:14:59;;;;;;;10.13;3.85;;;30.50;59.70;;;;;;1878166;75;21112;-49
2021/06/27 10:17:29;;;;;;;12.78;5.92;;;30.50;59.30;;;;;;1877861;76;21092;-47
2021/06/27 10:19:58;;;;;;;12.28;8.58;;;30.60;59.50;;;;;;1877917;76;21026;-48
2021/06/27 10:22:28;;;;;;;7.55;3.80;;;30.70;59.00;;;;;;1878009;75;21099;-49
2021/06/27 10:24:57;;;;;;;8.65;3.58;;;30.70;59.00;;;;;;1878069;76;21074;-47
2021/06/27 10:27:28;;;;;;;11.73;3.90;;;30.80;58.40;;;;;;1878005;76;21174;-49
2021/06/27 10:29:58;;;;;;;9.63;3.90;;;30.70;58.60;;;;;;1877921;76;21038;-50
2021/06/27 10:32:27;;;;;;;11.95;6.25;;;30.70;58.70;;;;;;1877870;76;21092;-50
2021/06/27 10:34:58;;;;;;;12.60;4.35;;;30.80;58.40;;;;;;1877956;76;21077;-47
2021/06/27 10:37:35;;;;;;;8.35;3.70;;;30.80;58.20;;;;;;1878031;76;21046;-48
2021/06/27 10:40:14;;;;;;;22.22;4.67;;;30.80;58.00;;;;;;1877961;75;21096;-48
2021/06/27 10:42:54;;;;;;;7.42;3.83;;;30.80;58.00;;;;;;1877973;76;21112;-48
2021/06/27 10:45:25;;;;;;;6.53;4.00;;;30.80;58.00;;;;;;1878094;75;21468;-46
2021/06/27 10:47:54;;;;;;;7.37;3.95;;;30.80;57.80;;;;;;1878227;76;21049;-49
2021/06/27 10:50:25;;;;;;;7.62;3.40;;;30.80;57.70;;;;;;1878019;76;21002;-48
2021/06/27 10:53:00;;;;;;;6.37;3.75;;;30.80;57.80;;;;;;1873467;75;21508;-47
2021/06/27 10:55:32;;;;;;;5.75;4.33;;;30.70;58.10;;;;;;1887164;76;21061;-49
2021/06/27 10:58:09;;;;;;;14.58;4.03;;;30.60;58.50;;;;;;1887229;76;21002;-51
2021/06/27 11:00:56;;;;;;;8.68;4.15;;;30.60;58.80;;;;;;1887134;75;21006;-47
2021/06/27 11:03:32;;;;;;;4.87;3.30;;;30.60;58.20;;;;;;1887293;76;21137;-48
2021/06/27 11:06:03;;;;;;;11.03;4.45;;;30.60;58.50;;;;;;1887282;76;21048;-47
2021/06/27 11:08:39;;;;;;;9.78;4.67;;;30.60;58.80;;;;;;1887362;75;21030;-50
2021/06/27 11:11:16;;;;;;;8.10;3.85;;;30.70;59.10;;;;;;1886515;76;21030;-51
2021/06/27 11:13:47;;;;;;;6.70;4.33;;;30.70;58.60;;;;;;1887186;76;21050;-49
2021/06/27 11:16:19;;;;;;;8.15;4.12;;;30.80;58.40;;;;;;1882631;76;21069;-48
2021/06/27 11:18:51;;;;;;;6.35;4.33;;;30.90;58.20;;;;;;1887373;76;21072;-49
2021/06/27 11:21:26;;;;;;;9.45;3.98;;;30.90;58.30;;;;;;1887157;76;21027;-50
2021/06/27 11:23:57;;;;;;;8.18;3.72;;;31.00;58.40;;;;;;1884223;76;21029;-49
2021/06/27 11:26:52;;;;;;;10.72;4.08;;;31.00;59.00;;;;;;1887139;76;21062;-47
2021/06/27 11:29:27;;;;;;;9.95;4.78;;;31.00;57.70;;;;;;1887295;76;21092;-50
2021/06/27 11:31:58;;;;;;;15.43;7.97;;;31.00;57.70;;;;;;1887197;76;21312;-48
2021/06/27 11:34:32;;;;;;;7.33;3.98;;;31.00;57.80;;;;;;1882682;76;21054;-50
2021/06/27 11:37:22;;;;;;;5.25;4.33;;;31.00;57.90;;;;;;1887427;76;21030;-50
2021/06/27 11:39:53;;;;;;;6.08;3.98;;;31.00;57.70;;;;;;1887364;76;21057;-50
2021/06/27 11:42:31;;;;;;;6.67;4.08;;;31.00;57.70;;;;;;1887234;76;21034;-51
2021/06/27 11:45:09;;;;;;;8.35;4.17;;;30.90;57.40;;;;;;1887364;76;21448;-48
2021/06/27 11:47:40;;;;;;;5.58;4.10;;;30.90;57.70;;;;;;1887280;76;21053;-51
2021/06/27 11:50:17;;;;;;;6.75;3.50;;;31.00;57.90;;;;;;1887294;75;21480;-47
2021/06/27 11:52:51;;;;;;;11.12;4.50;;;31.00;57.60;;;;;;1887058;76;21037;-50
2021/06/27 11:55:25;;;;;;;7.80;4.37;;;31.00;57.60;;;;;;1887219;75;21030;-50
2021/06/27 11:57:55;;;;;;;8.13;4.15;;;31.10;57.80;;;;;;1887161;76;21053;-50
2021/06/27 12:00:39;;;;;;;5.87;4.85;;;31.20;58.00;;;;;;1887156;76;21041;-47
2021/06/27 12:03:11;;;;;;;9.03;3.97;;;31.20;57.80;;;;;;1885323;76;21042;-51
2021/06/27 12:05:40;;;;;;;8.78;6.25;;;31.30;57.00;;;;;;1885940;76;21504;-48
2021/06/27 12:08:12;;;;;;;11.78;5.47;;;31.30;56.50;;;;;;1887242;76;21095;-49
2021/06/27 12:10:41;;;;;;;8.60;4.20;;;31.40;57.10;;;;;;1887089;75;21033;-49
2021/06/27 12:13:11;;;;;;;7.42;4.90;;;31.40;56.60;;;;;;1887060;76;21109;-49
2021/06/27 12:15:44;;;;;;;7.53;4.60;;;31.40;57.00;;;;;;1887091;76;21171;-48
2021/06/27 12:18:27;;;;;;;10.78;3.35;;;31.30;57.00;;;;;;1886878;76;21005;-48
2021/06/27 12:21:01;;;;;;;9.45;4.25;;;31.20;57.00;;;;;;1887225;76;21092;-51
2021/06/27 12:23:36;;;;;;;9.48;3.92;;;31.10;57.50;;;;;;1886532;75;21033;-48
2021/06/27 12:26:11;;;;;;;7.22;4.75;;;31.00;57.60;;;;;;1887077;76;21062;-50
2021/06/27 12:28:52;;;;;;;12.47;5.00;;;30.90;57.70;;;;;;1886915;76;21137;-48
2021/06/27 12:31:27;;;;;;;6.08;4.00;;;30.80;58.10;;;;;;1887199;76;21116;-49
2021/06/27 12:33:58;;;;;;;7.97;4.40;;;30.80;58.30;;;;;;1887098;76;21046;-47
2021/06/27 12:36:33;;;;;;;7.22;3.98;;;30.70;58.60;;;;;;1887134;76;21041;-48
2021/06/27 12:39:05;;;;;;;6.92;4.00;;;30.70;58.80;;;;;;1887246;75;21468;-49
2021/06/27 12:41:37;;;;;;;10.43;4.92;;;30.80;58.70;;;;;;1886986;76;21038;-49
2021/06/27 12:44:12;;;;;;;5.75;4.00;;;30.80;58.30;;;;;;1887313;76;21081;-49
2021/06/27 12:46:49;;;;;;;6.80;4.53;;;30.80;57.80;;;;;;1887140;75;21042;-48
2021/06/27 12:49:23;;;;;;;6.65;3.50;;;30.80;58.00;;;;;;1887189;76;21144;-48
2021/06/27 12:52:06;;;;;;;9.10;4.72;;;30.80;57.80;;;;;;1887135;75;21088;-49
2021/06/27 12:54:41;;;;;;;8.23;4.22;;;30.90;57.70;;;;;;1886920;75;21577;-48
2021/06/27 12:57:21;;;;;;;40.33;9.83;;;30.90;57.60;;;;;;1886874;76;21050;-48
2021/06/27 12:59:52;;;;;;;10.60;4.37;;;31.00;57.40;;;;;;1886982;76;21069;-48
2021/06/27 13:02:30;;;;;;;9.65;4.12;;;31.00;57.50;;;;;;1887006;75;21009;-49